createdAt,value
2019-04-20T00:00:56.361Z,13.05
2019-04-20T00:03:32.183Z,13.00
2019-04-20T00:06:01.455Z,13.70
2019-04-20T00:08:36.085Z,16.17
2019-04-20T00:11:12.700Z,17.50
2019-04-20T00:13:49.854Z,17.60
2019-04-20T00:16:12.608Z,17.45
2019-04-20T00:18:48.879Z,16.85
2019-04-20T00:21:35.712Z,16.30
2019-04-20T00:24:16.974Z,16.55
2019-04-20T00:27:11.773Z,14.33
2019-04-20T00:29:38.233Z,13.98
2019-04-20T00:32:01.631Z,14.58
2019-04-20T00:34:29.217Z,15.60
2019-04-20T00:36:54.166Z,16.60
2019-04-20T00:39:25.854Z,19.00
2019-04-20T00:42:03.781Z,18.90
2019-04-20T00:44:35.883Z,21.68
2019-04-20T00:47:17.039Z,19.50
2019-04-20T00:49:48.155Z,19.55
2019-04-20T00:52:27.673Z,22.32
2019-04-20T00:54:43.114Z,28.05
2019-04-20T00:57:24.766Z,30.05
2019-04-20T01:00:06.184Z,27.22
2019-04-20T01:02:32.638Z,30.32
2019-04-20T01:05:11.029Z,27.20
2019-04-20T01:07:54.696Z,31.77
2019-04-20T01:10:21.690Z,31.10
2019-04-20T01:13:01.383Z,28.15
2019-04-20T01:15:36.376Z,31.15
2019-04-20T01:17:58.202Z,31.30
2019-04-20T01:20:29.222Z,33.92
2019-04-20T01:23:06.714Z,37.55
2019-04-20T01:25:37.877Z,43.13
2019-04-20T01:28:24.566Z,48.38
2019-04-20T01:30:44.450Z,44.80
2019-04-20T01:33:25.167Z,43.63
2019-04-20T01:35:56.868Z,42.43
2019-04-20T01:38:31.959Z,41.40
2019-04-20T01:40:50.321Z,37.83
2019-04-20T01:43:22.576Z,33.67
2019-04-20T01:46:01.344Z,31.02
2019-04-20T01:48:30.781Z,24.30
2019-04-20T01:51:07.148Z,22.13
2019-04-20T01:53:53.749Z,17.23
2019-04-20T01:56:24.766Z,16.52
2019-04-20T01:59:15.971Z,11.85
2019-04-20T02:01:45.596Z,15.13
2019-04-20T02:04:30.404Z,17.42
2019-04-20T02:06:59.691Z,21.15
2019-04-20T02:09:31.159Z,22.13
2019-04-20T02:12:08.369Z,22.77
2019-04-20T02:14:41.212Z,21.55
2019-04-20T02:17:17.985Z,20.70
2019-04-20T02:19:59.805Z,27.15
2019-04-20T02:22:30.329Z,24.12
2019-04-20T02:24:44.834Z,26.62
2019-04-20T02:27:20.561Z,26.73
2019-04-20T02:30:14.219Z,27.58
2019-04-20T02:33:09.798Z,25.95
2019-04-20T02:35:42.681Z,29.90
2019-04-20T02:38:58.438Z,25.40
2019-04-20T02:40:50.607Z,28.07
2019-04-20T02:43:35.660Z,30.48
2019-04-20T02:45:51.003Z,31.45
2019-04-20T02:48:25.925Z,29.25
2019-04-20T02:51:04.535Z,34.73
2019-04-20T02:53:41.608Z,32.53
2019-04-20T02:56:09.063Z,30.45
2019-04-20T02:58:41.702Z,30.30
2019-04-20T03:01:03.912Z,32.83
2019-04-20T03:03:25.138Z,30.15
2019-04-20T03:06:04.637Z,31.95
2019-04-20T03:08:40.598Z,31.68
2019-04-20T03:11:24.360Z,33.10
2019-04-20T03:13:50.325Z,37.50
2019-04-20T03:16:16.685Z,38.80
2019-04-20T03:18:50.790Z,44.90
2019-04-20T03:21:24.771Z,40.78
2019-04-20T03:24:12.681Z,33.90
2019-04-20T03:26:51.996Z,36.53
2019-04-20T03:29:58.973Z,28.32
2019-04-20T03:32:57.316Z,24.95
2019-04-20T03:35:12.042Z,23.15
2019-04-20T03:37:42.199Z,24.70
2019-04-20T03:40:06.847Z,23.75
2019-04-20T03:42:24.450Z,19.80
2019-04-20T03:45:00.475Z,22.60
2019-04-20T03:47:38.399Z,23.30
2019-04-20T03:50:24.456Z,24.50
2019-04-20T03:53:19.139Z,26.95
2019-04-20T03:56:03.884Z,26.17
2019-04-20T03:58:50.529Z,25.20
2019-04-20T04:02:22.445Z,28.38
2019-04-20T04:04:34.442Z,23.80
2019-04-20T04:06:51.507Z,18.42
2019-04-20T04:09:31.629Z,14.70
2019-04-20T04:12:03.760Z,12.73
2019-04-20T04:14:24.031Z,11.95
2019-04-20T04:16:59.161Z,11.80
2019-04-20T04:19:31.713Z,10.10
2019-04-20T04:22:12.675Z,9.58
2019-04-20T04:24:52.461Z,9.68
2019-04-20T04:27:28.537Z,7.80
2019-04-20T04:29:58.288Z,13.30
2019-04-20T04:32:45.672Z,10.00
2019-04-20T04:35:03.068Z,8.78
2019-04-20T04:37:35.490Z,10.15
2019-04-20T04:40:23.534Z,10.50
2019-04-20T04:42:43.927Z,10.28
2019-04-20T04:45:01.613Z,10.78
2019-04-20T04:47:26.705Z,11.57
2019-04-20T04:50:05.603Z,9.58
2019-04-20T04:52:44.546Z,10.43
2019-04-20T04:55:16.177Z,10.90
2019-04-20T04:57:36.643Z,10.38
2019-04-20T05:00:11.144Z,9.10
2019-04-20T05:02:46.787Z,10.82
2019-04-20T05:05:41.259Z,12.03
2019-04-20T05:08:02.773Z,9.63
2019-04-20T05:10:26.656Z,14.60
2019-04-20T05:12:58.750Z,10.30
2019-04-20T05:15:46.177Z,9.00
2019-04-20T05:18:28.617Z,11.88
2019-04-20T05:20:58.799Z,9.98
2019-04-20T05:23:35.132Z,10.82
2019-04-20T05:26:30.984Z,8.85
2019-04-20T05:28:55.716Z,11.60
2019-04-20T05:31:23.546Z,10.90
2019-04-20T05:34:15.990Z,7.75
2019-04-20T05:36:45.108Z,12.03
2019-04-20T05:39:22.395Z,9.78
2019-04-20T05:41:45.766Z,8.78
2019-04-20T05:44:22.166Z,14.03
2019-04-20T05:47:01.011Z,9.25
2019-04-20T05:49:33.146Z,11.63
2019-04-20T05:52:10.724Z,9.65
2019-04-20T05:54:39.095Z,8.98
2019-04-20T05:57:14.964Z,9.55
2019-04-20T05:59:49.382Z,10.38
2019-04-20T06:02:16.952Z,11.15
2019-04-20T06:07:23.994Z,11.60
2019-04-20T06:09:54.547Z,10.78
2019-04-20T06:12:20.631Z,8.03
2019-04-20T06:15:08.025Z,9.50
2019-04-20T06:17:59.420Z,9.78
2019-04-20T06:20:38.025Z,9.40
2019-04-20T06:23:34.308Z,8.28
2019-04-20T06:26:13.189Z,6.25
2019-04-20T06:28:26.819Z,8.50
2019-04-20T06:30:59.533Z,5.67
2019-04-20T06:34:27.701Z,6.30
2019-04-20T06:36:49.646Z,7.40
2019-04-20T06:39:24.327Z,8.23
2019-04-20T06:44:31.971Z,7.03
2019-04-20T06:47:11.665Z,6.60
2019-04-20T06:49:33.441Z,8.98
2019-04-20T06:52:26.170Z,8.10
2019-04-20T06:55:06.961Z,7.45
2019-04-20T06:57:56.336Z,7.42
2019-04-20T07:00:15.351Z,8.73
2019-04-20T07:03:01.880Z,7.40
2019-04-20T07:05:22.448Z,12.63
2019-04-20T07:07:53.400Z,8.50
2019-04-20T07:10:26.266Z,9.83
2019-04-20T07:12:49.662Z,9.30
2019-04-20T07:15:30.250Z,7.83
2019-04-20T07:18:13.888Z,9.48
2019-04-20T07:21:12.789Z,8.85
2019-04-20T07:23:47.490Z,11.12
2019-04-20T07:26:25.044Z,8.70
2019-04-20T07:28:54.124Z,7.47
2019-04-20T07:31:18.408Z,5.95
2019-04-20T07:33:52.396Z,7.17
2019-04-20T07:36:34.802Z,8.93
2019-04-20T07:39:03.931Z,8.63
2019-04-20T07:41:45.995Z,12.23
2019-04-20T07:44:13.131Z,11.03
2019-04-20T07:46:48.101Z,8.65
2019-04-20T07:49:07.657Z,8.98
2019-04-20T07:51:24.852Z,9.70
2019-04-20T07:54:19.349Z,9.33
2019-04-20T07:56:42.427Z,10.28
2019-04-20T07:58:58.668Z,12.35
2019-04-20T08:02:07.807Z,10.90
2019-04-20T08:04:52.437Z,14.60
2019-04-20T08:07:10.622Z,10.93
2019-04-20T08:09:46.570Z,10.93
2019-04-20T08:12:51.612Z,10.53
2019-04-20T08:15:24.068Z,10.90
2019-04-20T08:17:52.804Z,10.45
2019-04-20T08:20:17.142Z,13.32
2019-04-20T08:22:56.918Z,8.95
2019-04-20T08:25:16.193Z,9.55
2019-04-20T08:27:55.212Z,12.40
2019-04-20T08:31:08.882Z,13.28
2019-04-20T08:34:04.818Z,12.85
2019-04-20T08:36:22.863Z,9.83
2019-04-20T08:39:16.973Z,14.50
2019-04-20T08:41:20.703Z,11.15
2019-04-20T08:43:58.977Z,17.73
2019-04-20T08:46:34.852Z,11.45
2019-04-20T08:49:01.559Z,12.25
2019-04-20T08:51:41.948Z,11.55
2019-04-20T08:54:08.796Z,9.03
2019-04-20T08:56:31.862Z,12.47
2019-04-20T08:58:52.835Z,15.23
2019-04-20T09:01:27.169Z,16.90
2019-04-20T09:04:05.457Z,18.45
2019-04-20T09:06:41.785Z,17.85
2019-04-20T09:09:34.856Z,17.85
2019-04-20T09:11:55.626Z,14.30
2019-04-20T09:14:22.079Z,13.15
2019-04-20T09:17:21.206Z,19.55
2019-04-20T09:19:52.845Z,16.32
2019-04-20T09:22:50.650Z,12.60
2019-04-20T09:25:48.698Z,14.33
2019-04-20T09:28:15.662Z,16.37
2019-04-20T09:30:52.262Z,13.08
2019-04-20T09:33:51.347Z,19.02
2019-04-20T09:36:18.507Z,25.32
2019-04-20T09:39:08.746Z,21.75
2019-04-20T09:41:58.901Z,25.82
2019-04-20T09:44:09.270Z,20.17
2019-04-20T09:46:48.575Z,22.67
2019-04-20T09:49:20.047Z,16.65
2019-04-20T09:52:05.229Z,20.35
2019-04-20T09:54:40.394Z,16.30
2019-04-20T09:57:09.490Z,18.75
2019-04-20T09:59:39.728Z,24.67
2019-04-20T10:02:01.915Z,17.02
2019-04-20T10:04:23.949Z,17.52
2019-04-20T10:06:55.260Z,22.13
2019-04-20T10:09:27.930Z,17.27
2019-04-20T10:11:57.558Z,17.82
2019-04-20T10:14:29.354Z,20.70
2019-04-20T10:17:00.180Z,19.00
2019-04-20T10:19:34.051Z,20.45
2019-04-20T10:22:04.554Z,19.15
2019-04-20T10:24:36.648Z,19.12
2019-04-20T10:27:08.384Z,17.17
2019-04-20T10:29:39.713Z,27.27
2019-04-20T10:32:14.188Z,19.52
2019-04-20T10:34:42.734Z,20.40
2019-04-20T10:37:19.828Z,17.85
2019-04-20T10:39:52.332Z,20.37
2019-04-20T10:42:24.268Z,23.32
2019-04-20T10:44:57.085Z,25.62
2019-04-20T10:47:27.342Z,28.27
2019-04-20T10:49:58.898Z,22.95
2019-04-20T10:52:29.860Z,14.68
2019-04-20T10:55:00.673Z,14.20
2019-04-20T10:57:33.424Z,17.42
2019-04-20T11:00:05.835Z,16.42
2019-04-20T11:02:39.362Z,13.32
2019-04-20T11:05:10.823Z,15.28
2019-04-20T11:07:44.251Z,15.98
2019-04-20T11:10:21.728Z,14.65
2019-04-20T11:12:48.425Z,13.03
2019-04-20T11:15:19.097Z,15.90
2019-04-20T11:17:51.267Z,17.40
2019-04-20T11:20:23.205Z,12.93
2019-04-20T11:22:54.174Z,14.78
2019-04-20T11:25:26.097Z,12.60
2019-04-20T11:27:58.426Z,12.15
2019-04-20T11:30:30.395Z,12.40
2019-04-20T11:33:02.227Z,13.28
2019-04-20T11:35:37.566Z,10.93
2019-04-20T11:38:07.011Z,11.75
2019-04-20T11:40:39.157Z,12.98
2019-04-20T11:43:11.375Z,13.43
2019-04-20T11:45:42.731Z,10.18
2019-04-20T11:48:15.764Z,14.15
2019-04-20T11:50:47.564Z,16.20
2019-04-20T11:53:19.478Z,15.95
2019-04-20T11:55:50.266Z,17.12
2019-04-20T11:58:21.764Z,18.07
2019-04-20T12:01:01.224Z,14.38
2019-04-20T12:03:35.404Z,13.40
2019-04-20T12:06:01.668Z,11.57
2019-04-20T12:08:32.654Z,12.70
2019-04-20T12:11:20.424Z,16.45
2019-04-20T12:13:36.692Z,11.95
2019-04-20T12:16:07.724Z,17.65
2019-04-20T12:18:38.533Z,18.60
2019-04-20T12:21:10.543Z,16.55
2019-04-20T12:23:42.335Z,25.60
2019-04-20T12:26:13.179Z,18.30
2019-04-20T12:28:43.836Z,16.02
2019-04-20T12:31:20.324Z,39.55
2019-04-20T12:33:48.318Z,15.63
2019-04-20T12:36:20.478Z,47.98
2019-04-20T12:38:51.343Z,20.12
2019-04-20T12:41:34.462Z,13.78
2019-04-20T12:43:54.483Z,17.48
2019-04-20T12:46:26.381Z,24.23
2019-04-20T12:48:57.786Z,22.17
2019-04-20T12:51:33.593Z,18.77
2019-04-20T12:54:00.842Z,19.05
2019-04-20T12:56:32.777Z,17.57
2019-04-20T12:59:03.725Z,21.12
2019-04-20T13:01:35.445Z,11.57
2019-04-20T13:04:08.932Z,11.63
2019-04-20T13:06:39.281Z,14.93
2019-04-20T13:09:12.792Z,14.03
2019-04-20T13:12:00.013Z,12.63
2019-04-20T13:15:12.167Z,11.45
2019-04-20T13:17:44.268Z,18.15
2019-04-20T13:20:16.153Z,16.52
2019-04-20T13:22:47.019Z,13.58
2019-04-20T13:25:18.799Z,13.03
2019-04-20T13:27:50.493Z,18.30
2019-04-20T13:30:21.809Z,13.20
2019-04-20T13:32:53.908Z,8.60
2019-04-20T13:35:26.083Z,13.55
2019-04-20T13:37:58.131Z,10.85
2019-04-20T13:40:31.005Z,12.47
2019-04-20T13:43:01.667Z,17.10
2019-04-20T13:45:32.942Z,12.75
2019-04-20T13:48:04.427Z,17.20
2019-04-20T13:50:36.025Z,16.42
2019-04-20T13:53:07.418Z,8.73
2019-04-20T13:55:40.102Z,10.30
2019-04-20T13:58:29.972Z,8.28
2019-04-20T14:01:14.678Z,10.55
2019-04-20T14:03:47.159Z,11.50
2019-04-20T14:06:18.514Z,11.78
2019-04-20T14:08:49.525Z,10.93
2019-04-20T14:11:21.067Z,10.75
2019-04-20T14:13:56.998Z,12.15
2019-04-20T14:16:25.113Z,12.70
2019-04-20T14:18:55.917Z,15.38
2019-04-20T14:21:26.503Z,9.98
2019-04-20T14:23:57.200Z,7.25
2019-04-20T14:26:28.939Z,8.90
2019-04-20T14:29:00.827Z,11.68
2019-04-20T14:31:32.183Z,10.82
2019-04-20T14:34:03.015Z,7.22
2019-04-20T14:36:34.868Z,11.20
2019-04-20T14:39:10.059Z,9.75
2019-04-20T14:41:42.258Z,9.33
2019-04-20T14:44:14.032Z,7.97
2019-04-20T14:46:45.525Z,6.22
2019-04-20T14:49:16.661Z,8.63
2019-04-20T14:51:47.769Z,11.28
2019-04-20T14:54:19.208Z,7.05
2019-04-20T14:56:51.591Z,7.03
2019-04-20T14:59:27.451Z,7.30
2019-04-20T15:02:02.791Z,9.83
2019-04-20T15:04:34.748Z,5.17
2019-04-20T15:07:06.693Z,9.15
2019-04-20T15:09:44.575Z,7.20
2019-04-20T15:12:16.893Z,8.25
2019-04-20T15:14:47.670Z,7.58
2019-04-20T15:17:25.653Z,6.95
2019-04-20T15:20:05.983Z,7.72
2019-04-20T15:22:43.400Z,5.95
2019-04-20T15:25:15.757Z,7.28
2019-04-20T15:27:47.997Z,7.55
2019-04-20T15:30:20.381Z,7.53
2019-04-20T15:32:52.370Z,5.10
2019-04-20T15:35:24.646Z,6.58
2019-04-20T15:37:55.500Z,6.60
2019-04-20T15:40:26.972Z,6.70
2019-04-20T15:43:05.963Z,7.30
2019-04-20T15:45:31.388Z,11.10
2019-04-20T15:48:02.233Z,6.75
2019-04-20T15:50:33.932Z,8.68
2019-04-20T15:53:05.905Z,9.63
2019-04-20T15:55:39.594Z,9.98
2019-04-20T15:58:10.254Z,7.78
2019-04-20T16:00:42.814Z,5.25
2019-04-20T16:03:29.674Z,7.72
2019-04-20T16:06:03.280Z,8.53
2019-04-20T16:08:36.702Z,7.83
2019-04-20T16:11:09.101Z,6.28
2019-04-20T16:13:45.775Z,4.95
2019-04-20T16:16:14.202Z,5.35
2019-04-20T16:18:50.727Z,7.17
2019-04-20T16:21:24.902Z,6.47
2019-04-20T16:23:59.146Z,6.25
2019-04-20T16:26:49.715Z,7.08
2019-04-20T16:29:21.691Z,6.55
2019-04-20T16:31:52.597Z,8.38
2019-04-20T16:34:23.434Z,7.10
2019-04-20T16:36:56.362Z,4.70
2019-04-20T16:39:26.550Z,8.13
2019-04-20T16:41:58.288Z,7.15
2019-04-20T16:44:29.391Z,5.50
2019-04-20T16:47:00.498Z,6.30
2019-04-20T16:49:31.273Z,6.78
2019-04-20T16:52:03.022Z,8.08
2019-04-20T16:54:33.835Z,7.12
2019-04-20T16:57:04.756Z,6.40
2019-04-20T16:59:41.404Z,7.70
2019-04-20T17:02:08.769Z,5.55
2019-04-20T17:04:40.822Z,12.10
2019-04-20T17:07:31.037Z,5.58
2019-04-20T17:10:02.312Z,5.72
2019-04-20T17:12:33.616Z,7.47
2019-04-20T17:15:05.572Z,6.78
2019-04-20T17:17:37.632Z,6.70
2019-04-20T17:20:09.453Z,7.05
2019-04-20T17:22:40.356Z,6.53
2019-04-20T17:25:12.293Z,6.53
2019-04-20T17:28:17.532Z,6.95
2019-04-20T17:31:07.555Z,6.22
2019-04-20T17:33:53.415Z,7.03
2019-04-20T17:36:20.816Z,7.03
2019-04-20T17:38:52.614Z,7.08
2019-04-20T17:41:42.957Z,8.13
2019-04-20T17:44:11.871Z,8.98
2019-04-20T17:46:35.752Z,4.67
2019-04-20T17:49:13.303Z,7.92
2019-04-20T17:51:56.873Z,5.53
2019-04-20T17:54:22.024Z,7.17
2019-04-20T17:56:54.314Z,7.53
2019-04-20T17:59:26.170Z,6.65
2019-04-20T18:02:30.579Z,7.72
2019-04-20T18:05:46.586Z,6.25
2019-04-20T18:08:20.437Z,9.95
2019-04-20T18:10:47.523Z,6.45
2019-04-20T18:13:13.723Z,5.40
2019-04-20T18:15:49.152Z,5.17
2019-04-20T18:18:40.885Z,5.45
2019-04-20T18:21:08.798Z,7.08
2019-04-20T18:23:44.357Z,5.92
2019-04-20T18:26:31.762Z,8.58
2019-04-20T18:29:03.677Z,6.25
2019-04-20T18:31:23.666Z,7.47
2019-04-20T18:34:00.685Z,6.72
2019-04-20T18:36:35.910Z,9.00
2019-04-20T18:39:06.622Z,6.58
2019-04-20T18:41:41.846Z,6.58
2019-04-20T18:44:10.631Z,9.43
2019-04-20T18:47:06.951Z,7.58
2019-04-20T18:49:27.226Z,10.53
2019-04-20T18:51:48.047Z,9.80
2019-04-20T18:54:22.331Z,9.05
2019-04-20T18:56:52.953Z,8.00
2019-04-20T18:59:31.930Z,10.68
2019-04-20T19:01:57.025Z,9.23
2019-04-20T19:04:28.060Z,12.03
2019-04-20T19:06:59.580Z,9.85
2019-04-20T19:09:32.337Z,15.83
2019-04-20T19:12:06.069Z,17.45
2019-04-20T19:15:04.998Z,19.00
2019-04-20T19:17:59.117Z,17.57
2019-04-20T19:20:30.746Z,17.77
2019-04-20T19:23:04.009Z,17.02
2019-04-20T19:25:38.996Z,16.65
2019-04-20T19:28:08.795Z,17.02
2019-04-20T19:30:47.007Z,14.75
2019-04-20T19:33:29.365Z,38.58
2019-04-20T19:35:53.015Z,14.10
2019-04-20T19:38:22.658Z,10.08
2019-04-20T19:40:58.404Z,17.98
2019-04-20T19:43:30.756Z,10.82
2019-04-20T19:46:36.655Z,10.20
2019-04-20T19:48:39.569Z,11.45
2019-04-20T19:51:25.493Z,9.28
2019-04-20T19:53:52.854Z,6.90
2019-04-20T19:56:16.630Z,7.65
2019-04-20T19:58:53.335Z,8.75
2019-04-20T20:01:09.299Z,6.92
2019-04-20T20:03:41.678Z,8.13
2019-04-20T20:06:23.726Z,8.63
2019-04-20T20:08:53.149Z,9.70
2019-04-20T20:11:26.549Z,8.70
2019-04-20T20:13:53.308Z,13.22
2019-04-20T20:16:30.431Z,13.10
2019-04-20T20:19:07.437Z,11.53
2019-04-20T20:21:46.742Z,13.93
2019-04-20T20:23:59.747Z,10.32
2019-04-20T20:26:37.016Z,9.65
2019-04-20T20:29:13.447Z,8.80
2019-04-20T20:31:54.029Z,7.08
2019-04-20T20:34:17.001Z,13.93
2019-04-20T20:36:47.106Z,8.80
2019-04-20T20:39:21.304Z,13.32
2019-04-20T20:41:58.071Z,12.35
2019-04-20T20:44:33.098Z,12.20
2019-04-20T20:46:59.508Z,9.93
2019-04-20T20:49:46.807Z,17.05
2019-04-20T20:52:17.057Z,17.67
2019-04-20T20:54:41.355Z,14.93
2019-04-20T20:57:08.939Z,23.42
2019-04-20T20:59:42.707Z,18.07
2019-04-20T21:02:14.557Z,20.75
2019-04-20T21:04:39.528Z,24.52
2019-04-20T21:07:10.974Z,19.75
2019-04-20T21:09:41.883Z,22.22
2019-04-20T21:12:16.272Z,17.75
2019-04-20T21:14:46.830Z,18.92
2019-04-20T21:17:21.811Z,18.60
2019-04-20T21:20:08.482Z,16.75
2019-04-20T21:22:41.292Z,15.10
2019-04-20T21:24:56.977Z,13.90
2019-04-20T21:27:27.828Z,17.48
2019-04-20T21:30:01.343Z,17.60
2019-04-20T21:32:33.080Z,25.05
2019-04-20T21:35:07.300Z,21.90
2019-04-20T21:37:37.044Z,21.70
2019-04-20T21:40:21.645Z,22.32
2019-04-20T21:42:48.182Z,20.15
2019-04-20T21:45:19.465Z,12.05
2019-04-20T21:47:47.001Z,11.78
2019-04-20T21:50:34.886Z,11.18
2019-04-20T21:52:55.135Z,12.60
2019-04-20T21:55:23.756Z,8.68
2019-04-20T21:58:00.013Z,8.60
2019-04-20T22:01:07.174Z,11.33
2019-04-20T22:03:26.780Z,10.30
2019-04-20T22:06:06.823Z,9.30
2019-04-20T22:08:44.621Z,9.33
2019-04-20T22:11:11.692Z,10.85
2019-04-20T22:13:44.609Z,10.05
2019-04-20T22:16:16.705Z,12.80
2019-04-20T22:18:53.990Z,12.23
2019-04-20T22:21:26.493Z,9.60
2019-04-20T22:24:04.170Z,11.18
2019-04-20T22:26:31.005Z,9.60
2019-04-20T22:28:56.364Z,14.95
2019-04-20T22:31:27.185Z,11.93
2019-04-20T22:34:00.809Z,11.03
2019-04-20T22:36:33.865Z,13.03
2019-04-20T22:39:11.743Z,11.55
2019-04-20T22:41:58.611Z,10.03
2019-04-20T22:44:26.651Z,6.95
2019-04-20T22:46:58.537Z,6.37
2019-04-20T22:49:44.237Z,5.97
2019-04-20T22:52:14.287Z,6.22
2019-04-20T22:54:52.198Z,5.22
2019-04-20T22:57:22.930Z,4.78
2019-04-20T22:59:52.364Z,4.00
2019-04-20T23:02:11.737Z,5.65
2019-04-20T23:04:44.602Z,5.25
2019-04-20T23:07:16.736Z,6.25
2019-04-20T23:09:54.413Z,7.05
2019-04-20T23:12:23.299Z,4.75
2019-04-20T23:14:52.453Z,7.28
2019-04-20T23:17:29.603Z,5.35
2019-04-20T23:19:59.503Z,8.25
2019-04-20T23:22:34.812Z,5.80
2019-04-20T23:24:59.931Z,5.65
2019-04-20T23:27:32.053Z,4.20
2019-04-20T23:30:11.109Z,5.65
2019-04-20T23:32:36.211Z,5.28
2019-04-20T23:35:11.870Z,6.17
2019-04-20T23:37:41.558Z,5.87
2019-04-20T23:40:13.699Z,5.22
2019-04-20T23:42:51.715Z,5.22
2019-04-20T23:45:50.739Z,5.95
2019-04-20T23:48:35.323Z,3.85
2019-04-20T23:51:27.858Z,4.95
2019-04-20T23:53:49.197Z,6.53
2019-04-20T23:56:07.913Z,9.40
2019-04-20T23:58:44.143Z,5.12
